Terminal Aerodrome Forecast
Issued by NWS Wilmington, NC

Home | Current Version | Previous Version | Text Only | Print | Product List | Glossary On
Versions: 1 2 3 4 5 6 7 8 9 10 11 12 13 14 15 16 17
449
FTUS42 KILM 302320
TAFILM
TAF
KILM 302320Z 3100/3124 12007KT P6SM VCSH BKN090
     FM310500 15009KT P6SM BKN060
     FM310900 16010KT P6SM OVC040
      TEMPO 3109/3113 2SM +TSRA OVC015CB
     FM311300 16010KT 3SM SHRA VCTS OVC025CB
     FM311500 20013KT P6SM VCSH BKN025
     FM311900 20018G26KT P6SM BKN040 PROB30 3119/3123 4SM TSRA
      OVC025CB=

USA.gov is the U.S. government's official web portal to all federal, state and local government web resources and services.